createdAt,value
2023-02-06T00:01:52.305Z,3.77
2023-02-06T00:04:18.793Z,3.50
2023-02-06T00:06:45.472Z,3.30
2023-02-06T00:09:11.996Z,3.30
2023-02-06T00:11:38.655Z,3.20
2023-02-06T00:14:05.796Z,3.37
2023-02-06T00:16:33.065Z,3.37
2023-02-06T00:19:00.000Z,3.50
2023-02-06T00:21:27.465Z,3.27
2023-02-06T00:23:55.140Z,3.40
2023-02-06T00:26:21.853Z,2.90
2023-02-06T00:28:48.421Z,3.20
2023-02-06T00:31:15.126Z,2.80
2023-02-06T00:33:41.926Z,3.10
2023-02-06T00:39:55.288Z,2.77
2023-02-06T00:42:21.855Z,2.97
2023-02-06T00:44:48.313Z,3.17
2023-02-06T00:47:14.764Z,3.40
2023-02-06T00:49:41.238Z,3.13
2023-02-06T00:52:07.726Z,3.10
2023-02-06T00:54:34.182Z,3.37
2023-02-06T00:57:00.669Z,3.50
2023-02-06T00:59:27.128Z,3.37
2023-02-06T01:01:53.627Z,3.20
2023-02-06T01:04:20.134Z,3.80
2023-02-06T01:06:46.627Z,3.60
2023-02-06T01:09:13.361Z,6.70
2023-02-06T01:11:39.996Z,3.40
2023-02-06T01:14:06.450Z,4.43
2023-02-06T01:16:33.147Z,8.20
2023-02-06T01:18:59.608Z,4.37
2023-02-06T01:21:26.129Z,3.37
2023-02-06T01:23:53.338Z,3.70
2023-02-06T01:26:21.111Z,3.63
2023-02-06T01:28:48.168Z,3.73
2023-02-06T01:31:14.656Z,3.73
2023-02-06T01:33:41.180Z,3.50
2023-02-06T01:36:07.942Z,3.40
2023-02-06T01:38:34.364Z,3.50
2023-02-06T01:41:01.237Z,3.30
2023-02-06T01:54:51.329Z,3.27
2023-02-06T01:57:19.001Z,3.53
2023-02-06T01:59:49.410Z,3.40
2023-02-06T02:02:16.016Z,3.50
2023-02-06T02:04:42.851Z,3.47
2023-02-06T02:07:18.866Z,3.27
2023-02-06T02:09:45.312Z,3.40
2023-02-06T02:12:12.181Z,3.77
2023-02-06T02:14:39.163Z,3.77
2023-02-06T02:17:05.571Z,3.53
2023-02-06T02:19:50.907Z,3.47
2023-02-06T02:22:20.539Z,4.97
2023-02-06T02:24:50.042Z,3.47
2023-02-06T02:27:38.486Z,3.37
2023-02-06T02:30:16.715Z,3.17
2023-02-06T02:32:46.392Z,3.10
2023-02-06T02:35:31.345Z,3.27
2023-02-06T02:38:01.072Z,4.10
2023-02-06T02:41:01.462Z,3.77
2023-02-06T02:43:38.305Z,3.40
2023-02-06T02:46:27.825Z,3.00
2023-02-06T02:48:56.943Z,3.20
2023-02-06T02:51:24.323Z,3.20
2023-02-06T02:53:50.837Z,3.17
2023-02-06T02:56:17.613Z,2.83
2023-02-06T02:58:44.486Z,2.90
2023-02-06T03:01:13.933Z,3.30
2023-02-06T03:03:41.724Z,3.23
2023-02-06T03:06:11.273Z,3.30
2023-02-06T03:08:54.420Z,3.60
2023-02-06T03:11:21.084Z,3.63
2023-02-06T03:13:53.371Z,3.57
2023-02-06T03:16:24.754Z,3.40
2023-02-06T03:19:13.100Z,3.50
2023-02-06T03:21:40.774Z,3.27
2023-02-06T03:24:10.720Z,3.37
2023-02-06T03:26:38.109Z,3.40
2023-02-06T03:29:06.744Z,3.40
2023-02-06T03:31:40.825Z,4.00
2023-02-06T03:34:11.319Z,3.17
2023-02-06T03:36:37.839Z,3.70
2023-02-06T03:39:04.401Z,3.50
2023-02-06T03:41:33.382Z,3.67
2023-02-06T03:44:00.713Z,3.97
2023-02-06T03:46:28.157Z,3.17
2023-02-06T03:48:56.056Z,3.40
2023-02-06T03:51:26.166Z,3.40
2023-02-06T03:53:54.691Z,3.60
2023-02-06T03:56:41.856Z,3.60
2023-02-06T03:59:08.326Z,3.23
2023-02-06T04:01:35.208Z,3.80
2023-02-06T04:04:03.476Z,3.80
2023-02-06T04:06:29.929Z,3.70
2023-02-06T04:08:56.441Z,3.87
2023-02-06T04:11:23.013Z,3.87
2023-02-06T04:13:49.451Z,3.50
2023-02-06T04:16:16.069Z,4.03
2023-02-06T04:18:42.627Z,3.93
2023-02-06T04:21:09.080Z,4.00
2023-02-06T04:23:35.596Z,3.83
2023-02-06T04:26:02.161Z,3.87
2023-02-06T04:28:28.663Z,4.10
2023-02-06T04:30:55.292Z,3.60
2023-02-06T04:33:21.859Z,3.53
2023-02-06T04:35:48.784Z,4.20
2023-02-06T04:38:15.303Z,3.80
2023-02-06T04:40:41.807Z,4.10
2023-02-06T04:43:08.290Z,3.83
2023-02-06T04:45:35.189Z,4.10
2023-02-06T04:48:02.077Z,4.10
2023-02-06T04:50:31.400Z,4.60
2023-02-06T04:52:58.383Z,4.33
2023-02-06T04:55:24.905Z,5.30
2023-02-06T04:57:51.330Z,6.17
2023-02-06T05:00:17.864Z,5.00
2023-02-06T05:02:44.526Z,4.80
2023-02-06T05:05:11.152Z,4.10
2023-02-06T05:07:37.741Z,4.17
2023-02-06T05:10:04.667Z,4.30
2023-02-06T05:12:31.142Z,3.87
2023-02-06T05:14:57.652Z,4.00
2023-02-06T05:17:24.291Z,4.00
2023-02-06T05:19:50.885Z,4.30
2023-02-06T05:22:17.416Z,4.50
2023-02-06T05:24:43.903Z,4.13
2023-02-06T05:27:10.371Z,3.57
2023-02-06T05:29:36.885Z,3.63
2023-02-06T05:32:03.708Z,3.97
2023-02-06T05:34:30.183Z,3.53
2023-02-06T05:36:56.744Z,4.30
2023-02-06T05:39:23.685Z,4.80
2023-02-06T05:41:50.168Z,4.80
2023-02-06T05:44:16.655Z,4.53
2023-02-06T05:46:44.270Z,4.03
2023-02-06T05:49:10.847Z,4.10
2023-02-06T05:51:37.340Z,4.30
2023-02-06T05:54:03.980Z,5.40
2023-02-06T05:56:30.539Z,3.60
2023-02-06T05:58:57.043Z,3.77
2023-02-06T06:01:23.601Z,3.90
2023-02-06T06:03:50.098Z,3.90
2023-02-06T06:06:16.662Z,4.90
2023-02-06T06:08:43.256Z,5.13
2023-02-06T06:11:09.736Z,4.40
2023-02-06T06:13:36.372Z,4.87
2023-02-06T06:16:02.978Z,4.30
2023-02-06T06:18:29.571Z,4.03
2023-02-06T06:20:56.082Z,4.20
2023-02-06T06:23:22.630Z,4.00
2023-02-06T06:25:49.256Z,3.90
2023-02-06T06:28:15.886Z,3.90
2023-02-06T06:30:42.552Z,3.80
2023-02-06T06:33:09.046Z,3.90
2023-02-06T06:35:35.811Z,3.93
2023-02-06T06:38:02.540Z,5.80
2023-02-06T06:40:29.201Z,4.33
2023-02-06T06:42:55.671Z,4.63
2023-02-06T06:45:22.420Z,4.90
2023-02-06T06:47:49.103Z,6.73
2023-02-06T06:50:15.630Z,5.80
2023-02-06T06:52:42.216Z,5.73
2023-02-06T06:55:08.662Z,6.57
2023-02-06T06:57:35.113Z,5.93
2023-02-06T07:00:01.753Z,5.83
2023-02-06T07:02:28.743Z,6.20
2023-02-06T07:04:55.690Z,5.60
2023-02-06T07:07:22.216Z,6.00
2023-02-06T07:09:48.740Z,5.67
2023-02-06T07:12:15.723Z,5.20
2023-02-06T07:14:42.241Z,5.13
2023-02-06T07:17:08.659Z,6.90
2023-02-06T07:19:35.094Z,5.80
2023-02-06T07:22:01.643Z,5.70
2023-02-06T07:28:09.935Z,4.67
2023-02-06T07:30:36.455Z,5.03
2023-02-06T07:33:05.980Z,5.23
2023-02-06T07:35:32.520Z,5.30
2023-02-06T07:37:58.966Z,5.43
2023-02-06T07:40:27.651Z,5.70
2023-02-06T07:42:55.834Z,4.73
2023-02-06T07:45:22.405Z,4.70
2023-02-06T07:47:48.869Z,5.27
2023-02-06T07:50:15.505Z,5.33
2023-02-06T07:52:41.940Z,5.40
2023-02-06T07:55:10.260Z,4.93
2023-02-06T07:57:37.147Z,4.90
2023-02-06T08:00:04.412Z,5.00
2023-02-06T08:02:30.892Z,5.27
2023-02-06T08:04:57.392Z,5.40
2023-02-06T08:07:24.250Z,12.03
2023-02-06T08:09:50.752Z,5.30
2023-02-06T08:12:17.353Z,4.43
2023-02-06T08:14:45.903Z,6.27
2023-02-06T08:17:13.640Z,9.37
2023-02-06T08:19:40.278Z,6.50
2023-02-06T08:22:06.816Z,5.70
2023-02-06T08:24:33.764Z,5.87
2023-02-06T08:27:00.268Z,5.50
2023-02-06T08:29:26.857Z,7.00
2023-02-06T08:31:53.404Z,6.23
2023-02-06T08:34:19.979Z,7.23
2023-02-06T08:36:46.601Z,5.57
2023-02-06T08:39:13.644Z,5.70
2023-02-06T08:41:40.922Z,5.57
2023-02-06T08:44:11.765Z,5.27
2023-02-06T08:46:38.488Z,5.40
2023-02-06T08:49:07.170Z,5.90
2023-02-06T08:51:34.575Z,5.67
2023-02-06T08:54:02.523Z,5.53
2023-02-06T08:56:29.310Z,5.70
2023-02-06T08:58:56.965Z,7.63
2023-02-06T09:01:23.506Z,6.43
2023-02-06T09:03:50.030Z,6.17
2023-02-06T09:06:16.754Z,6.80
2023-02-06T09:08:44.631Z,5.77
2023-02-06T09:11:15.937Z,5.87
2023-02-06T09:13:43.841Z,6.10
2023-02-06T09:16:11.283Z,5.87
2023-02-06T09:18:37.829Z,5.33
2023-02-06T09:21:07.450Z,6.13
2023-02-06T09:23:34.253Z,6.63
2023-02-06T09:26:00.753Z,5.33
2023-02-06T09:28:27.321Z,5.70
2023-02-06T09:30:53.882Z,5.30
2023-02-06T09:33:21.270Z,6.33
2023-02-06T09:35:47.780Z,5.33
2023-02-06T09:38:14.295Z,6.27
2023-02-06T09:40:40.817Z,5.90
2023-02-06T09:43:07.273Z,5.63
2023-02-06T09:45:34.028Z,5.80
2023-02-06T09:48:10.838Z,5.80
2023-02-06T09:50:56.089Z,6.67
2023-02-06T09:53:43.148Z,6.00
2023-02-06T09:56:15.553Z,6.50
2023-02-06T10:06:29.126Z,10.40
2023-02-06T10:08:56.030Z,11.77
2023-02-06T10:11:28.677Z,7.43
2023-02-06T10:13:57.292Z,6.10
2023-02-06T10:16:35.927Z,5.97
2023-02-06T10:19:06.138Z,6.70
2023-02-06T10:21:35.588Z,6.57
2023-02-06T10:24:31.624Z,6.93
2023-02-06T10:26:59.577Z,7.00
2023-02-06T10:29:31.334Z,7.70
2023-02-06T10:32:21.959Z,7.53
2023-02-06T10:34:48.501Z,8.60
2023-02-06T10:37:23.858Z,8.33
2023-02-06T10:40:14.259Z,7.60
2023-02-06T10:42:40.750Z,7.57
2023-02-06T10:45:25.605Z,7.20
2023-02-06T10:47:54.325Z,10.80
2023-02-06T10:50:29.926Z,7.80
2023-02-06T10:52:58.225Z,7.00
2023-02-06T10:55:29.060Z,7.10
2023-02-06T10:58:02.540Z,7.17
2023-02-06T11:00:29.318Z,7.17
2023-02-06T11:03:07.069Z,8.10
2023-02-06T11:05:35.390Z,6.53
2023-02-06T11:08:11.141Z,6.67
2023-02-06T11:10:38.122Z,6.53
2023-02-06T11:13:06.978Z,6.40
2023-02-06T11:15:59.685Z,8.03
2023-02-06T11:18:29.611Z,12.77
2023-02-06T11:20:56.344Z,8.37
2023-02-06T11:23:25.778Z,9.80
2023-02-06T11:25:58.669Z,6.60
2023-02-06T11:28:26.080Z,7.40
2023-02-06T11:30:59.876Z,6.10
2023-02-06T11:33:33.491Z,6.27
2023-02-06T11:36:00.559Z,7.70
2023-02-06T11:38:29.539Z,6.67
2023-02-06T11:40:56.099Z,6.70
2023-02-06T11:50:34.814Z,5.67
2023-02-06T11:53:10.387Z,6.40
2023-02-06T11:55:37.994Z,6.40
2023-02-06T11:58:13.931Z,7.67
2023-02-06T12:27:48.580Z,19.53
2023-02-06T12:30:34.003Z,13.43
2023-02-06T12:33:22.601Z,10.37
2023-02-06T12:35:52.259Z,8.53
2023-02-06T12:38:21.616Z,9.47
2023-02-06T12:41:03.369Z,8.57
2023-02-06T12:43:32.019Z,10.00
2023-02-06T12:46:04.759Z,10.13
2023-02-06T12:48:50.100Z,9.77
2023-02-06T12:51:24.633Z,10.17
2023-02-06T12:54:12.600Z,13.40
2023-02-06T12:56:43.294Z,8.90
2023-02-06T12:59:10.042Z,9.33
2023-02-06T13:01:52.100Z,10.13
2023-02-06T13:04:20.653Z,12.80
2023-02-06T13:06:53.617Z,11.10
2023-02-06T13:09:31.295Z,14.37
2023-02-06T13:12:14.924Z,14.80
2023-02-06T13:14:49.635Z,18.10
2023-02-06T13:17:19.632Z,14.63
2023-02-06T13:19:46.228Z,14.27
2023-02-06T13:22:19.514Z,15.23
2023-02-06T13:24:47.521Z,15.70
2023-02-06T13:27:24.202Z,13.90
2023-02-06T13:29:54.103Z,15.00
2023-02-06T13:32:23.847Z,11.47
2023-02-06T13:34:50.793Z,12.17
2023-02-06T13:37:32.642Z,10.60
2023-02-06T13:40:18.027Z,8.73
2023-02-06T13:42:50.715Z,9.20
2023-02-06T13:45:23.385Z,7.43
2023-02-06T13:47:52.895Z,7.07
2023-02-06T13:50:36.535Z,7.00
2023-02-06T13:53:03.067Z,7.23
2023-02-06T13:55:47.839Z,6.80
2023-02-06T13:58:33.071Z,8.50
2023-02-06T14:01:00.027Z,8.33
2023-02-06T14:03:30.586Z,5.70
2023-02-06T14:06:25.048Z,6.20
2023-02-06T14:09:09.386Z,5.60
2023-02-06T14:14:48.065Z,5.37
2023-02-06T14:17:17.340Z,5.90
2023-02-06T14:19:52.518Z,6.27
2023-02-06T14:22:34.086Z,7.10
2023-02-06T14:25:19.230Z,8.03
2023-02-06T14:31:46.658Z,7.50
2023-02-06T14:34:28.229Z,7.97
2023-02-06T14:36:54.687Z,7.57
2023-02-06T14:39:33.495Z,7.10
2023-02-06T14:42:04.911Z,8.70
2023-02-06T14:44:31.645Z,8.00
2023-02-06T14:46:58.436Z,6.80
2023-02-06T14:49:28.891Z,8.23
2023-02-06T14:51:55.426Z,7.27
2023-02-06T14:54:31.164Z,6.63
2023-02-06T14:56:58.860Z,6.83
2023-02-06T14:59:25.554Z,5.33
2023-02-06T15:01:53.190Z,5.93
2023-02-06T15:04:23.649Z,6.37
2023-02-06T15:07:01.132Z,7.87
2023-02-06T15:09:30.786Z,6.87
2023-02-06T15:11:59.712Z,10.63
2023-02-06T15:14:27.953Z,14.53
2023-02-06T15:16:59.266Z,17.20
2023-02-06T15:19:27.208Z,16.30
2023-02-06T15:22:01.501Z,16.70
2023-02-06T15:24:31.136Z,13.87
2023-02-06T15:27:05.754Z,11.43
2023-02-06T15:29:32.437Z,12.50
2023-02-06T15:32:04.401Z,14.33
2023-02-06T15:34:31.213Z,14.63
2023-02-06T15:36:57.851Z,17.37
2023-02-06T15:39:25.088Z,19.83
2023-02-06T15:41:52.601Z,21.33
2023-02-06T15:44:19.301Z,30.80
2023-02-06T15:46:48.446Z,12.90
2023-02-06T15:49:41.190Z,10.93
2023-02-06T15:52:07.975Z,9.40
2023-02-06T15:54:34.753Z,8.80
2023-02-06T15:57:07.722Z,8.73
2023-02-06T15:59:36.409Z,7.73
2023-02-06T16:02:04.089Z,6.77
2023-02-06T16:04:40.661Z,5.77
2023-02-06T16:07:15.406Z,6.57
2023-02-06T16:09:43.918Z,5.80
2023-02-06T16:12:10.543Z,6.20
2023-02-06T16:14:38.662Z,6.83
2023-02-06T16:17:20.678Z,10.27
2023-02-06T16:19:47.514Z,14.73
2023-02-06T16:22:16.018Z,14.17
2023-02-06T16:24:42.622Z,8.63
2023-02-06T16:27:23.724Z,8.17
2023-02-06T16:29:51.819Z,8.67
2023-02-06T16:32:21.850Z,9.70
2023-02-06T16:34:48.404Z,10.37
2023-02-06T16:37:16.605Z,9.63
2023-02-06T16:39:43.890Z,9.27
2023-02-06T16:42:15.267Z,9.33
2023-02-06T16:44:45.832Z,21.27
2023-02-06T16:47:17.104Z,13.13
2023-02-06T16:49:43.877Z,7.90
2023-02-06T16:52:17.000Z,6.10
2023-02-06T16:54:47.263Z,5.73
2023-02-06T16:57:24.987Z,4.90
2023-02-06T17:03:19.480Z,12.27
2023-02-06T17:05:47.267Z,13.33
2023-02-06T17:08:23.979Z,12.17
2023-02-06T17:10:51.337Z,14.40
2023-02-06T17:13:19.087Z,12.70
2023-02-06T17:15:49.164Z,12.30
2023-02-06T17:18:17.107Z,12.33
2023-02-06T17:20:45.487Z,11.93
2023-02-06T17:23:12.164Z,11.63
2023-02-06T17:25:42.772Z,11.83
2023-02-06T17:28:14.049Z,14.00
2023-02-06T17:30:41.153Z,18.17
2023-02-06T17:33:08.504Z,30.67
2023-02-06T17:35:36.964Z,35.30
2023-02-06T17:38:12.208Z,46.63
2023-02-06T17:40:41.739Z,32.27
2023-02-06T17:46:50.108Z,26.53
2023-02-06T17:49:17.434Z,27.17
2023-02-06T17:51:45.044Z,25.67
2023-02-06T17:54:12.327Z,25.63
2023-02-06T17:56:39.531Z,27.33
2023-02-06T17:59:06.330Z,26.33
2023-02-06T18:01:34.660Z,27.73
2023-02-06T18:04:01.596Z,27.93
2023-02-06T18:06:31.713Z,27.77
2023-02-06T18:08:58.583Z,29.93
2023-02-06T18:11:25.311Z,33.47
2023-02-06T18:13:52.087Z,32.57
2023-02-06T18:16:20.567Z,30.87
2023-02-06T18:18:47.709Z,29.17
2023-02-06T18:21:14.619Z,27.57
2023-02-06T18:23:41.351Z,21.97
2023-02-06T18:26:09.274Z,19.50
2023-02-06T18:28:36.446Z,16.50
2023-02-06T18:31:03.993Z,14.83
2023-02-06T18:33:31.604Z,10.40
2023-02-06T18:35:58.585Z,8.10
2023-02-06T18:38:26.913Z,6.70
2023-02-06T18:44:41.707Z,8.00
2023-02-06T18:47:08.958Z,9.77
2023-02-06T18:49:35.807Z,10.10
2023-02-06T18:52:03.148Z,8.93
2023-02-06T18:58:25.371Z,10.40
2023-02-06T19:00:53.358Z,11.83
2023-02-06T19:03:20.059Z,12.50
2023-02-06T19:05:46.860Z,14.70
2023-02-06T19:08:13.825Z,14.53
2023-02-06T19:10:41.120Z,16.03
2023-02-06T19:13:08.027Z,11.60
2023-02-06T19:15:38.149Z,10.53
2023-02-06T19:18:05.775Z,7.03
2023-02-06T19:20:32.639Z,7.70
2023-02-06T19:22:59.477Z,7.13
2023-02-06T19:25:26.815Z,8.37
2023-02-06T19:27:55.280Z,10.47
2023-02-06T19:30:22.201Z,10.33
2023-02-06T19:32:51.619Z,8.27
2023-02-06T19:35:19.106Z,7.10
2023-02-06T19:37:48.898Z,6.33
2023-02-06T19:40:15.677Z,6.40
2023-02-06T19:42:42.448Z,5.10
2023-02-06T19:45:09.211Z,5.17
2023-02-06T19:47:36.316Z,4.60
2023-02-06T19:50:03.360Z,5.70
2023-02-06T19:52:30.124Z,7.37
2023-02-06T19:54:56.797Z,6.40
2023-02-06T19:57:23.759Z,5.87
2023-02-06T19:59:50.531Z,4.90
2023-02-06T20:02:17.320Z,4.53
2023-02-06T20:04:46.345Z,6.40
2023-02-06T20:07:13.362Z,6.70
2023-02-06T20:09:42.067Z,7.13
2023-02-06T20:12:09.720Z,7.00
2023-02-06T20:14:36.566Z,9.47
2023-02-06T20:17:03.354Z,9.53
2023-02-06T20:19:30.210Z,7.67
2023-02-06T20:21:58.680Z,3.83
2023-02-06T20:24:30.229Z,3.73
2023-02-06T20:26:58.368Z,3.50
2023-02-06T20:29:26.844Z,3.30
2023-02-06T20:31:54.167Z,3.50
2023-02-06T20:34:22.053Z,6.90
2023-02-06T20:36:49.653Z,6.33
2023-02-06T20:39:16.617Z,7.40
2023-02-06T20:41:44.141Z,8.73
2023-02-06T20:44:11.799Z,20.40
2023-02-06T20:46:40.205Z,6.33
2023-02-06T20:49:10.691Z,5.27
2023-02-06T20:51:37.548Z,8.83
2023-02-06T20:54:04.508Z,16.53
2023-02-06T20:56:31.446Z,17.37
2023-02-06T20:59:01.145Z,25.57
2023-02-06T21:01:29.010Z,44.70
2023-02-06T21:03:58.092Z,35.33
2023-02-06T21:06:25.800Z,14.33
2023-02-06T21:08:57.331Z,9.43
2023-02-06T21:11:24.281Z,7.07
2023-02-06T21:13:51.054Z,7.50
2023-02-06T21:16:17.788Z,7.70
2023-02-06T21:18:44.512Z,9.77
2023-02-06T21:21:12.885Z,8.13
2023-02-06T21:23:40.331Z,8.00
2023-02-06T21:26:07.425Z,8.47
2023-02-06T21:28:35.136Z,8.53
2023-02-06T21:31:03.629Z,7.10
2023-02-06T21:33:30.297Z,7.47
2023-02-06T21:35:56.881Z,5.60
2023-02-06T21:38:24.031Z,5.13
2023-02-06T21:55:59.442Z,9.70
2023-02-06T21:58:25.989Z,10.63
2023-02-06T22:00:52.862Z,10.57
2023-02-06T22:03:19.660Z,8.67
2023-02-06T22:05:55.613Z,7.23
2023-02-06T22:08:22.331Z,7.30
2023-02-06T22:10:49.001Z,6.47
2023-02-06T22:13:15.678Z,5.50
2023-02-06T22:15:47.867Z,4.83
2023-02-06T22:18:14.447Z,5.07
2023-02-06T22:20:40.964Z,4.57
2023-02-06T22:23:07.500Z,3.17
2023-02-06T22:25:34.134Z,3.60
2023-02-06T22:28:02.592Z,3.97
2023-02-06T22:30:29.265Z,3.20
2023-02-06T22:32:55.899Z,3.20
2023-02-06T22:35:22.540Z,2.40
2023-02-06T22:37:49.226Z,3.63
2023-02-06T22:40:15.811Z,1.90
2023-02-06T22:42:42.445Z,1.90
2023-02-06T22:45:09.247Z,1.77
2023-02-06T22:47:35.989Z,1.80
2023-02-06T22:50:02.594Z,1.67
2023-02-06T22:52:47.873Z,1.20
2023-02-06T22:55:17.248Z,1.10
2023-02-06T22:57:46.909Z,1.43
2023-02-06T23:00:17.965Z,1.60
2023-02-06T23:02:47.669Z,1.30
2023-02-06T23:05:14.868Z,1.63
2023-02-06T23:07:44.176Z,1.60
2023-02-06T23:10:10.757Z,2.00
2023-02-06T23:12:37.437Z,2.13
2023-02-06T23:15:04.247Z,2.10
2023-02-06T23:17:30.800Z,2.13
2023-02-06T23:19:57.349Z,1.93
2023-02-06T23:22:23.883Z,1.97
2023-02-06T23:24:51.707Z,1.90
2023-02-06T23:27:19.785Z,1.60
2023-02-06T23:29:46.629Z,1.90
